Sanford, Texas
Current Conditions -  °F | °C
As of 4:51 AM on Tuesday 21 Oct 2014 (Local Time) from KBGD Reporting Station
Broken Clouds Broken Clouds  
Wind Chill: 62°   Ceiling: 5500
Heat Index: 62°   Visibility: 10mi
Dew Point: 52°   Wind: 7mph
Humidity: 70%   Direction: 220°SW
Pressure: 30.08"   Gusts: NA
Location:  35.7°N, 101.53°W
Report Text: KBGD 210951Z AUTO 22006KT 10SM BKN055 17/11 A3008 RMK AO2 SLP152 T01670111
Loading
Personal Weather Stations






























Interactive Weather Map
Tropical Storm Tracking
New forecast layout! Learn more

10-Day Weather Forecast

Advertisements
Track Severe Weather on mobile